Time;durP1;ratioP1;P1;durP2;ratioP2;P2;SDS_P1;SDS_P2;PMS_P1;PMS_P2;Temp;Humidity;BMP_temperature;BMP_pressure;BME280_temperature;BME280_humidity;BME280_pressure;Samples;Min_cycle;Max_cycle;Signal;HPM_P1;HPM_P2
2023/02/12 00:02:05;;;;;;;;;;;;;;;;;;5076538;28;20379;-83
2023/02/12 00:04:30;;;;;;;;;;;;;;;;;;5094834;28;19939;-88
2023/02/12 00:06:55;;;;;;;;;;;;;;;;;;5094729;28;20363;-87
2023/02/12 00:09:21;;;;;;;;;;;;;;;;;;5094687;28;19916;-87
2023/02/12 00:11:46;;;;;;;;;;;;;;;;;;5094793;28;19923;-87
2023/02/12 00:14:11;;;;;;;;;;;;;;;;;;5076514;28;19973;-85
2023/02/12 00:16:37;;;;;;;;;;;;;;;;;;5094524;28;20011;-85
2023/02/12 00:19:02;;;;;;;;;;;;;;;;;;5094622;28;19920;-87
2023/02/12 00:21:28;;;;;;;;;;;;;;;;;;5076239;28;20433;-88
2023/02/12 00:23:53;;;;;;;;;;;;;;;;;;5076208;28;19916;-83
2023/02/12 00:26:19;;;;;;;;;;;;;;;;;;5076291;28;19999;-88
2023/02/12 00:28:45;;;;;;;;;;;;;;;;;;5094449;28;20084;-89
2023/02/12 00:31:15;;;;;;;;;;;;;;;;;;5076071;28;20368;-87
2023/02/12 00:33:40;;;;;;;;;;;;;;;;;;5094343;28;19912;-88
2023/02/12 00:36:06;;;;;;;;;;;;;;;;;;5094408;28;20406;-87
2023/02/12 00:38:32;;;;;;;;;;;;;;;;;;5094117;28;19923;-89
2023/02/12 00:40:58;;;;;;;;;;;;;;;;;;5075810;28;19916;-88
2023/02/12 00:43:23;;;;;;;;;;;;;;;;;;5075883;28;19949;-86
2023/02/12 00:45:49;;;;;;;;;;;;;;;;;;5093877;28;20011;-89
2023/02/12 00:48:14;;;;;;;;;;;;;;;;;;5094096;28;19916;-84
2023/02/12 00:50:40;;;;;;;;;;;;;;;;;;5075954;28;19916;-87
2023/02/12 00:53:06;;;;;;;;;;;;;;;;;;5093917;28;19920;-86
2023/02/12 00:55:32;;;;;;;;;;;;;;;;;;5093825;28;20399;-87
2023/02/12 00:57:57;;;;;;;;;;;;;;;;;;5093888;28;20016;-88
2023/02/12 01:00:22;;;;;;;;;;;;;;;;;;5075673;28;20301;-86
2023/02/12 01:02:48;;;;;;;;;;;;;;;;;;5094140;28;20390;-87
2023/02/12 01:05:13;;;;;;;;;;;;;;;;;;5093842;28;20355;-86
2023/02/12 01:07:39;;;;;;;;;;;;;;;;;;5075473;28;20015;-87
2023/02/12 01:10:05;;;;;;;;;;;;;;;;;;5075754;28;19916;-87
2023/02/12 01:12:31;;;;;;;;;;;;;;;;;;5075490;28;20292;-89
2023/02/12 01:14:56;;;;;;;;;;;;;;;;;;5093925;28;19916;-86
2023/02/12 01:17:22;;;;;;;;;;;;;;;;;;5075638;28;20302;-87
2023/02/12 01:19:47;;;;;;;;;;;;;;;;;;5093800;28;19965;-87
2023/02/12 01:22:12;;;;;;;;;;;;;;;;;;5093894;28;20383;-89
2023/02/12 01:24:38;;;;;;;;;;;;;;;;;;5075495;28;19916;-90
2023/02/12 01:27:03;;;;;;;;;;;;;;;;;;5075921;28;20351;-87
2023/02/12 01:29:29;;;;;;;;;;;;;;;;;;5097037;28;19923;-90
2023/02/12 01:31:54;;;;;;;;;;;;;;;;;;5094085;28;19916;-89
2023/02/12 01:34:19;;;;;;;;;;;;;;;;;;5105141;28;19903;-87
2023/02/12 01:36:45;;;;;;;;;;;;;;;;;;5114680;28;19955;-83
2023/02/12 01:39:11;;;;;;;;;;;;;;;;;;5086721;28;19916;-86
2023/02/12 01:41:41;;;;;;;;;;;;;;;;;;5084398;28;19927;-85
2023/02/12 01:44:20;;;;;;;;;;;;;;;;;;5099558;28;20018;-84
2023/02/12 01:46:46;;;;;;;;;;;;;;;;;;5082615;28;19920;-87
2023/02/12 01:49:21;;;;;;;;;;;;;;;;;;5077855;28;20011;-85
2023/02/12 01:51:49;;;;;;;;;;;;;;;;;;5075951;28;19912;-86
2023/02/12 01:54:16;;;;;;;;;;;;;;;;;;5093503;28;19916;-85
2023/02/12 01:56:42;;;;;;;;;;;;;;;;;;5094081;28;19916;-86
2023/02/12 01:59:07;;;;;;;;;;;;;;;;;;5094111;28;20030;-88
2023/02/12 02:01:33;;;;;;;;;;;;;;;;;;5093875;28;19963;-90
2023/02/12 02:04:01;;;;;;;;;;;;;;;;;;5093863;28;20384;-90
2023/02/12 02:06:55;;;;;;;;;;;;;;;;;;5093869;28;20019;-88
2023/02/12 02:09:21;;;;;;;;;;;;;;;;;;5080115;28;19999;-83
2023/02/12 02:14:33;;;;;;;;;;;;;;;;;;5093617;28;19923;-85
2023/02/12 02:17:11;;;;;;;;;;;;;;;;;;5075234;28;19959;-86
2023/02/12 02:19:45;;;;;;;;;;;;;;;;;;5077000;28;20275;-83
2023/02/12 02:22:46;;;;;;;;;;;;;;;;;;5078685;28;20360;-84
2023/02/12 02:25:30;;;;;;;;;;;;;;;;;;5034446;28;19924;-85
2023/02/12 02:27:56;;;;;;;;;;;;;;;;;;5091514;28;19981;-83
2023/02/12 02:30:33;;;;;;;;;;;;;;;;;;5096728;28;20387;-87
2023/02/12 02:33:13;;;;;;;;;;;;;;;;;;5096556;28;19987;-85
2023/02/12 02:35:39;;;;;;;;;;;;;;;;;;5096547;28;19920;-86
2023/02/12 02:38:04;;;;;;;;;;;;;;;;;;5096551;28;19969;-85
2023/02/12 02:40:44;;;;;;;;;;;;;;;;;;5096492;28;19960;-86
2023/02/12 02:43:14;;;;;;;;;;;;;;;;;;5078415;28;20324;-87
2023/02/12 02:45:41;;;;;;;;;;;;;;;;;;5096415;28;19920;-88
2023/02/12 02:48:13;;;;;;;;;;;;;;;;;;5096468;28;20255;-84
2023/02/12 02:50:41;;;;;;;;;;;;;;;;;;5096279;28;19947;-85
2023/02/12 02:53:33;;;;;;;;;;;;;;;;;;5096238;28;19938;-86
2023/02/12 02:56:00;;;;;;;;;;;;;;;;;;5072221;28;19916;-87
2023/02/12 02:58:30;;;;;;;;;;;;;;;;;;5078308;28;20322;-86
2023/02/12 03:01:10;;;;;;;;;;;;;;;;;;5077927;28;20014;-90
2023/02/12 03:03:43;;;;;;;;;;;;;;;;;;5096032;28;19924;-87
2023/02/12 03:06:19;;;;;;;;;;;;;;;;;;5095958;28;20031;-85
2023/02/12 03:08:56;;;;;;;;;;;;;;;;;;5096408;28;20375;-83
2023/02/12 03:11:24;;;;;;;;;;;;;;;;;;5096051;28;19916;-83
2023/02/12 03:13:55;;;;;;;;;;;;;;;;;;5077797;28;19973;-84
2023/02/12 03:16:24;;;;;;;;;;;;;;;;;;5095887;28;19973;-84
2023/02/12 03:18:56;;;;;;;;;;;;;;;;;;5077653;28;19965;-85
2023/02/12 03:21:34;;;;;;;;;;;;;;;;;;5077606;28;19916;-87
2023/02/12 03:24:01;;;;;;;;;;;;;;;;;;5077779;28;19916;-84
2023/02/12 03:26:35;;;;;;;;;;;;;;;;;;5095652;28;19916;-84
2023/02/12 03:29:01;;;;;;;;;;;;;;;;;;5095760;28;19927;-88
2023/02/12 03:31:29;;;;;;;;;;;;;;;;;;5077019;28;19912;-86
2023/02/12 03:34:07;;;;;;;;;;;;;;;;;;5095722;28;20436;-85
2023/02/12 03:36:37;;;;;;;;;;;;;;;;;;5095449;28;19916;-87
2023/02/12 03:39:22;;;;;;;;;;;;;;;;;;5095498;28;19917;-86
2023/02/12 03:42:08;;;;;;;;;;;;;;;;;;5066231;28;19927;-84
2023/02/12 03:44:39;;;;;;;;;;;;;;;;;;5076541;28;19955;-86
2023/02/12 03:47:11;;;;;;;;;;;;;;;;;;5095257;28;19912;-84
2023/02/12 03:49:57;;;;;;;;;;;;;;;;;;5095233;28;19916;-85
2023/02/12 03:52:22;;;;;;;;;;;;;;;;;;5094655;28;19954;-89
2023/02/12 03:54:48;;;;;;;;;;;;;;;;;;5095044;28;19963;-89
2023/02/12 03:57:16;;;;;;;;;;;;;;;;;;5094989;28;19927;-90
2023/02/12 03:59:42;;;;;;;;;;;;;;;;;;5095086;28;20011;-86
2023/02/12 04:02:08;;;;;;;;;;;;;;;;;;5094727;28;20069;-85
2023/02/12 04:04:33;;;;;;;;;;;;;;;;;;5094828;28;19916;-88
2023/02/12 04:06:59;;;;;;;;;;;;;;;;;;5094829;28;19920;-87
2023/02/12 04:09:26;;;;;;;;;;;;;;;;;;5076566;28;20014;-91
2023/02/12 04:12:04;;;;;;;;;;;;;;;;;;5094674;28;19922;-88
2023/02/12 04:14:32;;;;;;;;;;;;;;;;;;5094660;28;19920;-87
2023/02/12 04:17:07;;;;;;;;;;;;;;;;;;5076501;28;19916;-88
2023/02/12 04:19:51;;;;;;;;;;;;;;;;;;5094435;28;19959;-87
2023/02/12 04:22:49;;;;;;;;;;;;;;;;;;5094493;28;19961;-88
2023/02/12 04:25:23;;;;;;;;;;;;;;;;;;5060335;28;20318;-87
2023/02/12 04:27:48;;;;;;;;;;;;;;;;;;5094649;28;20267;-87
2023/02/12 04:30:23;;;;;;;;;;;;;;;;;;5094444;28;20019;-86
2023/02/12 04:32:59;;;;;;;;;;;;;;;;;;5076253;28;19926;-87
2023/02/12 04:35:35;;;;;;;;;;;;;;;;;;5094317;28;19923;-89
2023/02/12 04:38:14;;;;;;;;;;;;;;;;;;5094370;28;19920;-89
2023/02/12 04:40:40;;;;;;;;;;;;;;;;;;5075924;28;20385;-88
2023/02/12 04:43:05;;;;;;;;;;;;;;;;;;5093465;28;20091;-89
2023/02/12 04:45:32;;;;;;;;;;;;;;;;;;5094054;28;19913;-89
2023/02/12 04:47:58;;;;;;;;;;;;;;;;;;5094063;28;19959;-88
2023/02/12 04:50:24;;;;;;;;;;;;;;;;;;5094039;28;19923;-89
2023/02/12 04:52:50;;;;;;;;;;;;;;;;;;5093943;28;19912;-88
2023/02/12 04:55:15;;;;;;;;;;;;;;;;;;5093973;28;19928;-90
2023/02/12 04:57:41;;;;;;;;;;;;;;;;;;5093998;28;19983;-89
2023/02/12 05:00:09;;;;;;;;;;;;;;;;;;5075603;28;19917;-89
2023/02/12 05:02:34;;;;;;;;;;;;;;;;;;5075531;28;19916;-89
2023/02/12 05:04:59;;;;;;;;;;;;;;;;;;5093837;28;19965;-90
2023/02/12 05:07:25;;;;;;;;;;;;;;;;;;5093762;28;19947;-88
2023/02/12 05:09:50;;;;;;;;;;;;;;;;;;5093868;28;19916;-89
2023/02/12 05:12:16;;;;;;;;;;;;;;;;;;5093566;28;19920;-84
2023/02/12 05:14:41;;;;;;;;;;;;;;;;;;5093593;28;19955;-85
2023/02/12 05:17:06;;;;;;;;;;;;;;;;;;5093587;28;19923;-86
2023/02/12 05:19:33;;;;;;;;;;;;;;;;;;5093381;28;20449;-84
2023/02/12 05:21:58;;;;;;;;;;;;;;;;;;5093463;28;19942;-85
2023/02/12 05:24:24;;;;;;;;;;;;;;;;;;5093457;28;20022;-85
2023/02/12 05:26:50;;;;;;;;;;;;;;;;;;5093488;28;19924;-85
2023/02/12 05:29:15;;;;;;;;;;;;;;;;;;5093473;28;19920;-85
2023/02/12 05:31:41;;;;;;;;;;;;;;;;;;5093446;28;20404;-85
2023/02/12 05:34:09;;;;;;;;;;;;;;;;;;5093312;28;19924;-86
2023/02/12 05:36:34;;;;;;;;;;;;;;;;;;5093374;28;19923;-83
2023/02/12 05:38:59;;;;;;;;;;;;;;;;;;5093394;28;19920;-86
2023/02/12 05:41:25;;;;;;;;;;;;;;;;;;5075197;28;19924;-86
2023/02/12 05:43:50;;;;;;;;;;;;;;;;;;5075173;28;20264;-88
2023/02/12 05:46:16;;;;;;;;;;;;;;;;;;5093301;28;19946;-86
2023/02/12 05:48:42;;;;;;;;;;;;;;;;;;5075142;28;19916;-87
2023/02/12 05:51:08;;;;;;;;;;;;;;;;;;5075149;28;19924;-87
2023/02/12 05:53:34;;;;;;;;;;;;;;;;;;5076563;28;20019;-87
2023/02/12 05:56:17;;;;;;;;;;;;;;;;;;5097345;28;20006;-85
2023/02/12 05:58:44;;;;;;;;;;;;;;;;;;5097286;28;19926;-88
2023/02/12 06:01:20;;;;;;;;;;;;;;;;;;5078950;28;19916;-86
2023/02/12 06:03:46;;;;;;;;;;;;;;;;;;5097250;28;20444;-88
2023/02/12 06:06:11;;;;;;;;;;;;;;;;;;5097151;28;19912;-89
2023/02/12 06:08:37;;;;;;;;;;;;;;;;;;5097174;28;19928;-86
2023/02/12 06:11:04;;;;;;;;;;;;;;;;;;5097097;28;19919;-89
2023/02/12 06:13:30;;;;;;;;;;;;;;;;;;5078749;28;19938;-85
2023/02/12 06:15:56;;;;;;;;;;;;;;;;;;5079143;28;19916;-86
2023/02/12 06:18:22;;;;;;;;;;;;;;;;;;5079373;28;19916;-90
2023/02/12 06:20:47;;;;;;;;;;;;;;;;;;5097239;28;19977;-85
2023/02/12 06:23:12;;;;;;;;;;;;;;;;;;5079188;28;19923;-88
2023/02/12 06:25:38;;;;;;;;;;;;;;;;;;5097255;28;19974;-88
2023/02/12 06:28:03;;;;;;;;;;;;;;;;;;5079848;28;20360;-87
2023/02/12 06:30:30;;;;;;;;;;;;;;;;;;5100393;28;19926;-90
2023/02/12 06:32:56;;;;;;;;;;;;;;;;;;5115844;28;19917;-88
2023/02/12 06:35:21;;;;;;;;;;;;;;;;;;5101200;28;19902;-85
2023/02/12 06:37:46;;;;;;;;;;;;;;;;;;5113368;28;19916;-90
2023/02/12 06:40:12;;;;;;;;;;;;;;;;;;5101059;28;19916;-88
2023/02/12 06:42:37;;;;;;;;;;;;;;;;;;5099697;28;20007;-85
2023/02/12 06:45:03;;;;;;;;;;;;;;;;;;5099178;28;20440;-87
2023/02/12 06:47:28;;;;;;;;;;;;;;;;;;5098337;28;19916;-88
2023/02/12 06:49:54;;;;;;;;;;;;;;;;;;5098190;28;20288;-90
2023/02/12 06:52:20;;;;;;;;;;;;;;;;;;5080377;28;19989;-89
2023/02/12 06:54:45;;;;;;;;;;;;;;;;;;5096801;28;19924;-90
2023/02/12 06:57:11;;;;;;;;;;;;;;;;;;5097214;28;20007;-91
2023/02/12 06:59:36;;;;;;;;;;;;;;;;;;5097359;28;20367;-89
2023/02/12 07:02:02;;;;;;;;;;;;;;;;;;5078095;28;19916;-90
2023/02/12 07:04:27;;;;;;;;;;;;;;;;;;5095826;28;19917;-88
2023/02/12 07:06:52;;;;;;;;;;;;;;;;;;5096013;28;19912;-89
2023/02/12 07:09:18;;;;;;;;;;;;;;;;;;5096488;28;20022;-90
2023/02/12 07:11:43;;;;;;;;;;;;;;;;;;5096132;28;19961;-88
2023/02/12 07:14:16;;;;;;;;;;;;;;;;;;5096020;28;19919;-86
2023/02/12 07:16:41;;;;;;;;;;;;;;;;;;5077812;28;19916;-90
2023/02/12 07:19:07;;;;;;;;;;;;;;;;;;5077482;28;19922;-88
2023/02/12 07:21:32;;;;;;;;;;;;;;;;;;5095684;28;20002;-90
2023/02/12 07:23:58;;;;;;;;;;;;;;;;;;5095537;28;19915;-87
2023/02/12 07:26:23;;;;;;;;;;;;;;;;;;5095876;28;19916;-87
2023/02/12 07:28:49;;;;;;;;;;;;;;;;;;5095551;28;19916;-89
2023/02/12 07:31:16;;;;;;;;;;;;;;;;;;5095688;28;19923;-89
2023/02/12 07:33:42;;;;;;;;;;;;;;;;;;5077515;28;19924;-90
2023/02/12 07:36:09;;;;;;;;;;;;;;;;;;5095559;28;20302;-89
2023/02/12 07:38:38;;;;;;;;;;;;;;;;;;5095508;28;19916;-89
2023/02/12 07:41:14;;;;;;;;;;;;;;;;;;5095402;28;19970;-89
2023/02/12 07:43:39;;;;;;;;;;;;;;;;;;5095230;28;20388;-90
2023/02/12 07:46:09;;;;;;;;;;;;;;;;;;5095428;28;20015;-89
2023/02/12 07:48:34;;;;;;;;;;;;;;;;;;5077144;28;19972;-89
2023/02/12 07:51:07;;;;;;;;;;;;;;;;;;5095168;28;19923;-87
2023/02/12 07:53:33;;;;;;;;;;;;;;;;;;5076892;28;19923;-84
2023/02/12 07:56:08;;;;;;;;;;;;;;;;;;5095274;28;19916;-84
2023/02/12 07:58:33;;;;;;;;;;;;;;;;;;5076840;28;20287;-85
2023/02/12 08:00:59;;;;;;;;;;;;;;;;;;5094739;28;19965;-86
2023/02/12 08:03:26;;;;;;;;;;;;;;;;;;5094947;28;19966;-87
2023/02/12 08:05:51;;;;;;;;;;;;;;;;;;5094895;28;19912;-84
2023/02/12 08:08:17;;;;;;;;;;;;;;;;;;5094841;28;19923;-86
2023/02/12 08:10:42;;;;;;;;;;;;;;;;;;5094773;28;20437;-85
2023/02/12 08:13:08;;;;;;;;;;;;;;;;;;5094705;28;20003;-85
2023/02/12 08:15:33;;;;;;;;;;;;;;;;;;5094601;28;19916;-86
2023/02/12 08:17:58;;;;;;;;;;;;;;;;;;5094674;28;19965;-87
2023/02/12 08:20:24;;;;;;;;;;;;;;;;;;5072760;28;19920;-87
2023/02/12 08:22:49;;;;;;;;;;;;;;;;;;5073075;28;19917;-88
2023/02/12 08:25:15;;;;;;;;;;;;;;;;;;5074255;28;19923;-88
2023/02/12 08:27:40;;;;;;;;;;;;;;;;;;5072916;28;20015;-88
2023/02/12 08:30:06;;;;;;;;;;;;;;;;;;5074260;28;19920;-87
2023/02/12 08:32:32;;;;;;;;;;;;;;;;;;5072709;28;20290;-87
2023/02/12 08:34:58;;;;;;;;;;;;;;;;;;5074092;28;19916;-86
2023/02/12 08:37:23;;;;;;;;;;;;;;;;;;5074058;28;19917;-86
2023/02/12 08:39:48;;;;;;;;;;;;;;;;;;5073946;28;19939;-86
2023/02/12 08:42:14;;;;;;;;;;;;;;;;;;5073856;28;20300;-85
2023/02/12 08:44:41;;;;;;;;;;;;;;;;;;5072540;28;20272;-85
2023/02/12 08:47:06;;;;;;;;;;;;;;;;;;5072689;28;19990;-87
2023/02/12 08:49:31;;;;;;;;;;;;;;;;;;5073825;28;20368;-85
2023/02/12 08:51:58;;;;;;;;;;;;;;;;;;5072664;28;19956;-84
2023/02/12 08:54:25;;;;;;;;;;;;;;;;;;5073612;28;20286;-84
2023/02/12 08:56:53;;;;;;;;;;;;;;;;;;5073633;28;19922;-86
2023/02/12 08:59:18;;;;;;;;;;;;;;;;;;5073608;28;20011;-85
2023/02/12 09:01:44;;;;;;;;;;;;;;;;;;5073591;28;20027;-87
2023/02/12 09:04:13;;;;;;;;;;;;;;;;;;5073539;28;19969;-86
2023/02/12 09:06:39;;;;;;;;;;;;;;;;;;5073535;28;19960;-86
2023/02/12 09:09:06;;;;;;;;;;;;;;;;;;5072018;28;19966;-84
2023/02/12 09:11:33;;;;;;;;;;;;;;;;;;5072124;28;19924;-87
2023/02/12 09:14:00;;;;;;;;;;;;;;;;;;5073537;28;19993;-83
2023/02/12 09:16:26;;;;;;;;;;;;;;;;;;5072159;28;19916;-84
2023/02/12 09:18:51;;;;;;;;;;;;;;;;;;5072284;28;19923;-85
2023/02/12 09:21:18;;;;;;;;;;;;;;;;;;5075341;28;20375;-83
2023/02/12 09:23:44;;;;;;;;;;;;;;;;;;5093569;28;20418;-84
2023/02/12 09:26:11;;;;;;;;;;;;;;;;;;5075316;28;20015;-83
2023/02/12 09:28:37;;;;;;;;;;;;;;;;;;5087805;28;19927;-84
2023/02/12 09:31:06;;;;;;;;;;;;;;;;;;5091758;28;19916;-84
2023/02/12 09:33:31;;;;;;;;;;;;;;;;;;5073622;28;19912;-84
2023/02/12 09:36:01;;;;;;;;;;;;;;;;;;5092435;28;19999;-84
2023/02/12 09:38:27;;;;;;;;;;;;;;;;;;5074205;28;20003;-83
2023/02/12 09:41:05;;;;;;;;;;;;;;;;;;5092317;28;20019;-83
2023/02/12 09:43:34;;;;;;;;;;;;;;;;;;5092470;28;19924;-84
2023/02/12 09:46:12;;;;;;;;;;;;;;;;;;5093229;28;19916;-84
2023/02/12 09:48:40;;;;;;;;;;;;;;;;;;5075090;28;19922;-84
2023/02/12 09:51:08;;;;;;;;;;;;;;;;;;5075109;28;19939;-83
2023/02/12 09:53:35;;;;;;;;;;;;;;;;;;5093194;28;19916;-84
2023/02/12 09:56:00;;;;;;;;;;;;;;;;;;5093179;28;19920;-84
2023/02/12 09:58:32;;;;;;;;;;;;;;;;;;5093122;28;20406;-84
2023/02/12 10:00:57;;;;;;;;;;;;;;;;;;5093063;28;20399;-83
2023/02/12 10:03:24;;;;;;;;;;;;;;;;;;5093180;28;19920;-85
2023/02/12 10:05:52;;;;;;;;;;;;;;;;;;5093095;28;19912;-84
2023/02/12 10:08:23;;;;;;;;;;;;;;;;;;5093078;28;19917;-84
2023/02/12 10:10:58;;;;;;;;;;;;;;;;;;5093071;28;20272;-84
2023/02/12 10:13:35;;;;;;;;;;;;;;;;;;5093144;28;19965;-83
2023/02/12 10:16:09;;;;;;;;;;;;;;;;;;5093018;28;20329;-83
2023/02/12 10:18:41;;;;;;;;;;;;;;;;;;5074906;28;19916;-83
2023/02/12 10:21:14;;;;;;;;;;;;;;;;;;5092752;28;19924;-84
2023/02/12 10:23:58;;;;;;;;;;;;;;;;;;5074980;28;19927;-84
2023/02/12 10:26:32;;;;;;;;;;;;;;;;;;5092846;28;19912;-83
2023/02/12 10:29:00;;;;;;;;;;;;;;;;;;5092920;28;19969;-83
2023/02/12 10:31:31;;;;;;;;;;;;;;;;;;5092842;28;19920;-83
2023/02/12 10:33:56;;;;;;;;;;;;;;;;;;5092873;28;19920;-84
2023/02/12 10:36:48;;;;;;;;;;;;;;;;;;5093004;28;20394;-83
2023/02/12 10:39:28;;;;;;;;;;;;;;;;;;5072068;28;19923;-83
2023/02/12 10:42:08;;;;;;;;;;;;;;;;;;5078013;28;19923;-85
2023/02/12 10:44:33;;;;;;;;;;;;;;;;;;5095868;28;20447;-84
2023/02/12 10:46:58;;;;;;;;;;;;;;;;;;5108816;28;20015;-86
2023/02/12 10:49:24;;;;;;;;;;;;;;;;;;5099734;28;19917;-84
2023/02/12 10:51:56;;;;;;;;;;;;;;;;;;5108817;28;19923;-83
2023/02/12 10:54:42;;;;;;;;;;;;;;;;;;5089531;28;20398;-83
2023/02/12 10:57:10;;;;;;;;;;;;;;;;;;5079057;28;19923;-83
2023/02/12 10:59:35;;;;;;;;;;;;;;;;;;5096214;28;20002;-82
2023/02/12 11:02:01;;;;;;;;;;;;;;;;;;5095995;28;20430;-82
2023/02/12 11:04:28;;;;;;;;;;;;;;;;;;5077870;28;19989;-82
2023/02/12 11:07:02;;;;;;;;;;;;;;;;;;5096060;28;20264;-83
2023/02/12 11:09:29;;;;;;;;;;;;;;;;;;5095977;28;19931;-83
2023/02/12 11:11:54;;;;;;;;;;;;;;;;;;5095981;28;19912;-83
2023/02/12 11:14:21;;;;;;;;;;;;;;;;;;5077722;28;20388;-83
2023/02/12 11:16:52;;;;;;;;;;;;;;;;;;5095833;28;20015;-82
2023/02/12 11:19:20;;;;;;;;;;;;;;;;;;5077370;28;19920;-84
2023/02/12 11:21:46;;;;;;;;;;;;;;;;;;5095640;28;19927;-83
2023/02/12 11:24:27;;;;;;;;;;;;;;;;;;5095682;28;19916;-84
2023/02/12 11:27:10;;;;;;;;;;;;;;;;;;5071883;28;19943;-84
2023/02/12 11:29:36;;;;;;;;;;;;;;;;;;5077220;28;20302;-83
2023/02/12 11:32:09;;;;;;;;;;;;;;;;;;5095534;28;19916;-83
2023/02/12 11:34:35;;;;;;;;;;;;;;;;;;5095494;28;19920;-87
2023/02/12 11:37:00;;;;;;;;;;;;;;;;;;5095382;28;20272;-83
2023/02/12 11:39:26;;;;;;;;;;;;;;;;;;5095340;28;20002;-82
2023/02/12 11:41:53;;;;;;;;;;;;;;;;;;5095215;28;19916;-86
2023/02/12 11:44:20;;;;;;;;;;;;;;;;;;5095195;28;19998;-83
2023/02/12 11:46:57;;;;;;;;;;;;;;;;;;5095186;28;19920;-87
2023/02/12 11:49:28;;;;;;;;;;;;;;;;;;5095307;28;19916;-85
2023/02/12 11:51:54;;;;;;;;;;;;;;;;;;5094841;28;19939;-86
2023/02/12 11:54:25;;;;;;;;;;;;;;;;;;5095076;28;20291;-86
2023/02/12 11:56:51;;;;;;;;;;;;;;;;;;5095134;28;19920;-88
2023/02/12 11:59:36;;;;;;;;;;;;;;;;;;5095010;28;20437;-83
2023/02/12 12:02:14;;;;;;;;;;;;;;;;;;5094835;28;19924;-84
2023/02/12 12:04:40;;;;;;;;;;;;;;;;;;5095036;28;19923;-86
2023/02/12 12:07:12;;;;;;;;;;;;;;;;;;5093476;28;19920;-85
2023/02/12 12:09:56;;;;;;;;;;;;;;;;;;5094758;28;19922;-83
2023/02/12 12:12:42;;;;;;;;;;;;;;;;;;5094683;28;19919;-83
2023/02/12 12:20:57;;;;;;;;;;;;;;;;;;5094388;28;20291;-84
2023/02/12 12:23:36;;;;;;;;;;;;;;;;;;5094526;28;19920;-82
2023/02/12 12:26:05;;;;;;;;;;;;;;;;;;5100193;28;19973;-82
2023/02/12 12:28:39;;;;;;;;;;;;;;;;;;5094425;28;19916;-84
2023/02/12 12:31:16;;;;;;;;;;;;;;;;;;5094477;28;19998;-82
2023/02/12 12:33:54;;;;;;;;;;;;;;;;;;5093059;28;19920;-83
2023/02/12 12:36:22;;;;;;;;;;;;;;;;;;5094258;28;20401;-82
2023/02/12 12:38:48;;;;;;;;;;;;;;;;;;5094223;28;19916;-82
2023/02/12 12:41:32;;;;;;;;;;;;;;;;;;5092886;28;19928;-82
2023/02/12 12:44:06;;;;;;;;;;;;;;;;;;5092861;28;19916;-82
2023/02/12 12:46:32;;;;;;;;;;;;;;;;;;5094127;28;19922;-83
2023/02/12 12:49:12;;;;;;;;;;;;;;;;;;5094049;28;20010;-82
2023/02/12 12:51:59;;;;;;;;;;;;;;;;;;5094045;28;19969;-82
2023/02/12 12:54:40;;;;;;;;;;;;;;;;;;5094011;28;19916;-82
2023/02/12 12:57:35;;;;;;;;;;;;;;;;;;5092668;28;19956;-82
2023/02/12 13:00:14;;;;;;;;;;;;;;;;;;5080293;28;19916;-82
2023/02/12 13:03:00;;;;;;;;;;;;;;;;;;5091861;28;19920;-82
2023/02/12 13:05:32;;;;;;;;;;;;;;;;;;5092590;28;20071;-83
2023/02/12 13:07:57;;;;;;;;;;;;;;;;;;5093731;28;19920;-81
2023/02/12 13:10:22;;;;;;;;;;;;;;;;;;5093769;28;19916;-82
2023/02/12 13:12:54;;;;;;;;;;;;;;;;;;5092375;28;19923;-81
2023/02/12 13:15:35;;;;;;;;;;;;;;;;;;5093594;28;19922;-82
2023/02/12 13:18:07;;;;;;;;;;;;;;;;;;5093602;28;19930;-82
2023/02/12 13:20:32;;;;;;;;;;;;;;;;;;5093280;28;19920;-84
2023/02/12 13:23:21;;;;;;;;;;;;;;;;;;5093461;28;20026;-83
2023/02/12 13:25:55;;;;;;;;;;;;;;;;;;5085026;28;20271;-82
2023/02/12 13:28:41;;;;;;;;;;;;;;;;;;5093362;28;19916;-82
2023/02/12 13:31:08;;;;;;;;;;;;;;;;;;5092925;28;19924;-82
2023/02/12 13:33:54;;;;;;;;;;;;;;;;;;5093386;28;20369;-82
2023/02/12 13:36:19;;;;;;;;;;;;;;;;;;5095134;28;20352;-82
2023/02/12 13:38:50;;;;;;;;;;;;;;;;;;5093285;28;19952;-81
2023/02/12 13:41:16;;;;;;;;;;;;;;;;;;5093297;28;19922;-82
2023/02/12 13:43:57;;;;;;;;;;;;;;;;;;5093260;28;20011;-81
2023/02/12 13:46:23;;;;;;;;;;;;;;;;;;5093535;28;19918;-81
2023/02/12 13:49:12;;;;;;;;;;;;;;;;;;5093316;28;19955;-82
2023/02/12 13:51:41;;;;;;;;;;;;;;;;;;5093293;28;20734;-81
2023/02/12 13:54:13;;;;;;;;;;;;;;;;;;5092053;28;19920;-82
2023/02/12 13:56:47;;;;;;;;;;;;;;;;;;5092020;28;20286;-81
2023/02/12 13:59:31;;;;;;;;;;;;;;;;;;5091912;28;19916;-81
2023/02/12 14:02:01;;;;;;;;;;;;;;;;;;5093127;28;19920;-82
2023/02/12 14:04:29;;;;;;;;;;;;;;;;;;5093308;28;19927;-83
2023/02/12 14:06:58;;;;;;;;;;;;;;;;;;5091829;28;20377;-82
2023/02/12 14:09:31;;;;;;;;;;;;;;;;;;5093120;28;19917;-81
2023/02/12 14:11:57;;;;;;;;;;;;;;;;;;5093636;28;19961;-83
2023/02/12 14:14:28;;;;;;;;;;;;;;;;;;5096804;28;19916;-82
2023/02/12 14:16:54;;;;;;;;;;;;;;;;;;5095748;28;19998;-82
2023/02/12 14:19:38;;;;;;;;;;;;;;;;;;5096759;28;20463;-82
2023/02/12 14:22:32;;;;;;;;;;;;;;;;;;5096802;28;20287;-81
2023/02/12 14:24:58;;;;;;;;;;;;;;;;;;5096717;28;19962;-82
2023/02/12 14:27:29;;;;;;;;;;;;;;;;;;5096825;28;20295;-82
2023/02/12 14:30:10;;;;;;;;;;;;;;;;;;5096835;28;19955;-81
2023/02/12 14:32:54;;;;;;;;;;;;;;;;;;5073925;28;19978;-84
2023/02/12 14:35:26;;;;;;;;;;;;;;;;;;5105361;28;20011;-81
2023/02/12 14:38:02;;;;;;;;;;;;;;;;;;5096875;28;19927;-82
2023/02/12 14:40:33;;;;;;;;;;;;;;;;;;5095718;28;20003;-82
2023/02/12 14:43:00;;;;;;;;;;;;;;;;;;5096757;28;19916;-82
2023/02/12 14:45:27;;;;;;;;;;;;;;;;;;5096792;28;19970;-81
2023/02/12 14:47:52;;;;;;;;;;;;;;;;;;5096652;28;19952;-82
2023/02/12 14:50:21;;;;;;;;;;;;;;;;;;5096804;28;20391;-81
2023/02/12 14:52:52;;;;;;;;;;;;;;;;;;5109619;28;19976;-81
2023/02/12 14:55:29;;;;;;;;;;;;;;;;;;5109380;28;19927;-82
2023/02/12 14:57:59;;;;;;;;;;;;;;;;;;5110356;28;19969;-81
2023/02/12 15:00:26;;;;;;;;;;;;;;;;;;5103968;28;19920;-84
2023/02/12 15:02:53;;;;;;;;;;;;;;;;;;5095573;28;19923;-83
2023/02/12 15:05:26;;;;;;;;;;;;;;;;;;5076961;28;19921;-82
2023/02/12 15:08:04;;;;;;;;;;;;;;;;;;5096388;28;19916;-81
2023/02/12 15:10:33;;;;;;;;;;;;;;;;;;5096300;28;19916;-81
2023/02/12 15:13:04;;;;;;;;;;;;;;;;;;5096010;28;20332;-82
2023/02/12 15:15:36;;;;;;;;;;;;;;;;;;5096121;28;20001;-81
2023/02/12 15:18:19;;;;;;;;;;;;;;;;;;5090968;28;19931;-82
2023/02/12 15:20:50;;;;;;;;;;;;;;;;;;5075916;28;19924;-81
2023/02/12 15:23:37;;;;;;;;;;;;;;;;;;5077575;28;20276;-82
2023/02/12 15:26:03;;;;;;;;;;;;;;;;;;5093203;28;20298;-81
2023/02/12 15:28:32;;;;;;;;;;;;;;;;;;5094144;28;20403;-86
2023/02/12 15:30:58;;;;;;;;;;;;;;;;;;5093900;28;19920;-85
2023/02/12 15:33:26;;;;;;;;;;;;;;;;;;5093835;28;19916;-84
2023/02/12 15:35:52;;;;;;;;;;;;;;;;;;5093893;28;19923;-83
2023/02/12 15:38:20;;;;;;;;;;;;;;;;;;5093863;28;19916;-86
2023/02/12 15:40:52;;;;;;;;;;;;;;;;;;5095226;28;19916;-82
2023/02/12 15:43:18;;;;;;;;;;;;;;;;;;5095601;28;20371;-83
2023/02/12 15:45:49;;;;;;;;;;;;;;;;;;5077291;28;19923;-83
2023/02/12 15:48:19;;;;;;;;;;;;;;;;;;5095502;28;19916;-84
2023/02/12 15:50:53;;;;;;;;;;;;;;;;;;5077241;28;19916;-82
2023/02/12 15:53:18;;;;;;;;;;;;;;;;;;5095340;28;20381;-82
2023/02/12 15:55:45;;;;;;;;;;;;;;;;;;5076097;28;19924;-84
2023/02/12 15:58:19;;;;;;;;;;;;;;;;;;5083213;28;20394;-84
2023/02/12 16:00:47;;;;;;;;;;;;;;;;;;5062387;28;19916;-82
2023/02/12 16:03:18;;;;;;;;;;;;;;;;;;5065499;28;19973;-84
2023/02/12 16:05:44;;;;;;;;;;;;;;;;;;5080544;28;19920;-86
2023/02/12 16:08:13;;;;;;;;;;;;;;;;;;5081718;28;19921;-82
2023/02/12 16:10:42;;;;;;;;;;;;;;;;;;5086165;28;20402;-84
2023/02/12 16:13:09;;;;;;;;;;;;;;;;;;5092966;28;19981;-81
2023/02/12 16:15:38;;;;;;;;;;;;;;;;;;5068936;28;20402;-83
2023/02/12 16:18:03;;;;;;;;;;;;;;;;;;5071874;28;20582;-81
2023/02/12 16:20:29;;;;;;;;;;;;;;;;;;5091382;28;19920;-82
2023/02/12 16:22:55;;;;;;;;;;;;;;;;;;5088952;28;19927;-87
2023/02/12 16:25:28;;;;;;;;;;;;;;;;;;5069344;28;19973;-83
2023/02/12 16:27:56;;;;;;;;;;;;;;;;;;5076454;28;20755;-86
2023/02/12 16:30:22;;;;;;;;;;;;;;;;;;5075120;28;19920;-81
2023/02/12 16:32:49;;;;;;;;;;;;;;;;;;5063617;28;19927;-84
2023/02/12 16:35:14;;;;;;;;;;;;;;;;;;5075078;28;20011;-82
2023/02/12 16:37:41;;;;;;;;;;;;;;;;;;5093451;28;20023;-82
2023/02/12 16:40:08;;;;;;;;;;;;;;;;;;5094185;28;19989;-81
2023/02/12 16:42:34;;;;;;;;;;;;;;;;;;5075964;28;19916;-82
2023/02/12 16:44:59;;;;;;;;;;;;;;;;;;5094350;28;19965;-82
2023/02/12 16:47:25;;;;;;;;;;;;;;;;;;5094224;28;19923;-83
2023/02/12 16:50:01;;;;;;;;;;;;;;;;;;5094626;28;19916;-82
2023/02/12 16:52:29;;;;;;;;;;;;;;;;;;5082456;28;20378;-86
2023/02/12 16:54:55;;;;;;;;;;;;;;;;;;5056261;28;19913;-85
2023/02/12 16:57:20;;;;;;;;;;;;;;;;;;5092112;28;19933;-83
2023/02/12 16:59:45;;;;;;;;;;;;;;;;;;5066322;28;19921;-83
2023/02/12 17:02:13;;;;;;;;;;;;;;;;;;5085140;28;20295;-82
2023/02/12 17:04:38;;;;;;;;;;;;;;;;;;5076413;28;19916;-82
2023/02/12 17:07:08;;;;;;;;;;;;;;;;;;5084775;28;19946;-82
2023/02/12 17:09:34;;;;;;;;;;;;;;;;;;5078479;28;20391;-82
2023/02/12 17:11:59;;;;;;;;;;;;;;;;;;5074729;28;19955;-82